Time;durP1;ratioP1;P1;durP2;ratioP2;P2;SDS_P1;SDS_P2;PMS_P1;PMS_P2;Temp;Humidity;BMP_temperature;BMP_pressure;BME280_temperature;BME280_humidity;BME280_pressure;Samples;Min_cycle;Max_cycle;Signal;HPM_P1;HPM_P2
2021/12/06 00:33:57;;;;;;;38.0;32.1;;;;;;;3.9;90.3;100940;;;;
2021/12/06 00:37:56;;;;;;;38.0;32.1;;;;;;;3.8;90.2;100960;;;;
2021/12/06 00:53:50;;;;;;;36.3;30.9;;;;;;;3.9;90.3;100970;;;;
2021/12/06 00:57:52;;;;;;;36.3;30.9;;;;;;;3.8;90.3;100980;;;;
2021/12/06 01:01:51;;;;;;;36.3;30.9;;;;;;;3.9;90.2;100990;;;;
2021/12/06 01:03:50;;;;;;;36.3;30.9;;;;;;;3.8;90.2;101000;;;;
2021/12/06 01:07:50;;;;;;;39.8;32.1;;;;;;;3.9;90.5;101010;;;;
2021/12/06 01:15:50;;;;;;;39.8;32.1;;;;;;;3.8;90.1;101020;;;;
2021/12/06 01:17:50;;;;;;;39.8;32.1;;;;;;;3.9;90.2;101020;;;;
2021/12/06 01:22:03;;;;;;;39.8;32.1;;;;;;;3.8;90.3;101030;;;;
2021/12/06 01:23:56;;;;;;;39.8;32.1;;;;;;;3.9;90.2;101020;;;;
2021/12/06 01:31:59;;;;;;;39.3;32.2;;;;;;;3.9;90.3;101020;;;;
2021/12/06 01:43:50;;;;;;;39.3;32.2;;;;;;;3.9;90.3;101020;;;;
2021/12/06 01:53:50;;;;;;;41.4;32.6;;;;;;;3.8;90.0;101040;;;;
2021/12/06 01:55:50;;;;;;;41.4;32.6;;;;;;;3.9;90.0;101040;;;;
2021/12/06 01:57:53;;;;;;;41.4;32.6;;;;;;;3.8;90.0;101040;;;;
2021/12/06 02:05:50;;;;;;;43.7;33.7;;;;;;;3.9;90.1;101050;;;;
2021/12/06 02:09:51;;;;;;;43.7;33.7;;;;;;;3.8;89.9;101050;;;;
2021/12/06 02:19:50;;;;;;;43.7;33.7;;;;;;;3.7;90.1;101050;;;;
2021/12/06 02:25:50;;;;;;;44.3;34.7;;;;;;;3.8;90.4;101050;;;;
2021/12/06 02:27:50;;;;;;;44.3;34.7;;;;;;;3.7;90.4;101050;;;;
2021/12/06 02:29:50;;;;;;;44.3;34.7;;;;;;;3.6;90.5;101050;;;;
2021/12/06 02:35:52;;;;;;;44.3;34.7;;;;;;;3.7;90.7;101060;;;;
2021/12/06 02:39:52;;;;;;;44.3;34.7;;;;;;;3.6;90.5;101070;;;;
2021/12/06 02:41:52;;;;;;;44.3;34.7;;;;;;;3.7;90.7;101060;;;;
2021/12/06 03:05:52;;;;;;;47.2;35.0;;;;;;;3.8;90.5;101100;;;;
2021/12/06 03:07:57;;;;;;;47.2;35.0;;;;;;;3.7;90.5;101090;;;;
2021/12/06 03:11:52;;;;;;;47.2;35.0;;;;;;;3.8;90.3;101090;;;;
2021/12/06 03:19:50;;;;;;;47.2;35.0;;;;;;;3.7;90.2;101090;;;;
2021/12/06 03:23:50;;;;;;;47.2;35.0;;;;;;;3.8;90.2;101090;;;;
2021/12/06 03:29:50;;;;;;;49.1;35.2;;;;;;;3.7;90.2;101100;;;;
2021/12/06 03:31:50;;;;;;;49.1;35.2;;;;;;;3.8;90.1;101100;;;;
2021/12/06 03:33:50;;;;;;;49.1;35.2;;;;;;;3.7;90.1;101110;;;;
2021/12/06 03:35:50;;;;;;;49.1;35.2;;;;;;;3.8;90.2;101100;;;;
2021/12/06 03:39:52;;;;;;;49.1;35.2;;;;;;;3.7;90.2;101100;;;;
2021/12/06 03:41:50;;;;;;;49.1;35.2;;;;;;;3.8;90.2;101100;;;;
2021/12/06 03:45:50;;;;;;;47.8;35.7;;;;;;;3.7;90.1;101110;;;;
2021/12/06 03:47:50;;;;;;;47.8;35.7;;;;;;;3.6;90.2;101100;;;;
2021/12/06 03:49:50;;;;;;;47.8;35.7;;;;;;;3.7;90.4;101100;;;;
2021/12/06 03:51:50;;;;;;;47.8;35.7;;;;;;;3.8;90.3;101110;;;;
2021/12/06 03:53:50;;;;;;;47.8;35.7;;;;;;;3.7;90.2;101110;;;;
2021/12/06 03:55:50;;;;;;;47.8;35.7;;;;;;;3.6;90.3;101110;;;;
2021/12/06 03:57:50;;;;;;;47.8;35.7;;;;;;;3.7;90.5;101110;;;;
2021/12/06 03:59:50;;;;;;;47.8;35.7;;;;;;;3.6;90.3;101120;;;;
2021/12/06 04:01:51;;;;;;;47.8;35.7;;;;;;;3.7;90.4;101110;;;;
2021/12/06 04:09:50;;;;;;;49.9;35.8;;;;;;;3.6;90.3;101100;;;;
2021/12/06 04:13:50;;;;;;;49.9;35.8;;;;;;;3.7;90.6;101100;;;;
2021/12/06 04:31:50;;;;;;;49.6;37.3;;;;;;;3.6;90.2;101120;;;;
2021/12/06 04:34:00;;;;;;;49.6;37.3;;;;;;;3.7;90.3;101120;;;;
2021/12/06 04:47:50;;;;;;;55.0;38.9;;;;;;;3.6;90.4;101110;;;;
2021/12/06 05:01:51;;;;;;;55.0;38.9;;;;;;;3.5;90.1;101120;;;;
2021/12/06 05:15:50;;;;;;;58.6;40.0;;;;;;;3.4;89.6;101140;;;;
2021/12/06 05:21:50;;;;;;;58.6;40.0;;;;;;;3.3;89.8;101140;;;;
2021/12/06 05:29:56;;;;;;;56.7;38.4;;;;;;;3.2;89.4;101150;;;;
2021/12/06 05:31:55;;;;;;;56.7;38.4;;;;;;;3.1;89.4;101160;;;;
2021/12/06 05:37:50;;;;;;;56.7;38.4;;;;;;;3.0;89.1;101160;;;;
2021/12/06 05:41:50;;;;;;;56.7;38.4;;;;;;;2.8;89.1;101160;;;;
2021/12/06 05:43:50;;;;;;;65.2;41.0;;;;;;;2.7;89.5;101160;;;;
2021/12/06 05:45:50;;;;;;;65.2;41.0;;;;;;;2.8;89.6;101170;;;;
2021/12/06 05:49:50;;;;;;;65.2;41.0;;;;;;;2.7;89.3;101160;;;;
2021/12/06 05:55:50;;;;;;;65.2;41.0;;;;;;;2.6;89.0;101140;;;;
2021/12/06 05:57:50;;;;;;;65.2;41.0;;;;;;;2.5;89.2;101140;;;;
2021/12/06 06:07:50;;;;;;;66.4;42.6;;;;;;;2.4;89.0;101160;;;;
2021/12/06 06:11:50;;;;;;;66.4;42.6;;;;;;;2.3;88.8;101160;;;;
2021/12/06 06:17:50;;;;;;;66.4;42.6;;;;;;;2.2;89.0;101170;;;;
2021/12/06 06:21:50;;;;;;;66.4;42.6;;;;;;;2.1;89.0;101170;;;;
2021/12/06 06:23:50;;;;;;;63.0;41.9;;;;;;;2.2;89.1;101180;;;;
2021/12/06 06:25:50;;;;;;;63.0;41.9;;;;;;;2.0;88.9;101170;;;;
2021/12/06 06:57:51;;;;;;;106.9;48.5;;;;;;;2.1;90.3;101190;;;;
2021/12/06 07:03:53;;;;;;;327.3;64.0;;;;;;;2.2;90.6;101200;;;;
2021/12/06 07:11:51;;;;;;;327.3;64.0;;;;;;;2.3;90.8;101200;;;;
2021/12/06 07:15:50;;;;;;;327.3;64.0;;;;;;;2.4;90.6;101200;;;;
2021/12/06 07:17:51;;;;;;;327.3;64.0;;;;;;;2.3;90.9;101200;;;;
2021/12/06 07:21:50;;;;;;;327.3;64.0;;;;;;;2.2;91.1;101210;;;;
2021/12/06 07:23:51;;;;;;;169.4;45.4;;;;;;;2.3;91.0;101210;;;;
2021/12/06 07:25:50;;;;;;;169.4;45.4;;;;;;;2.4;90.9;101210;;;;
2021/12/06 07:33:51;;;;;;;169.4;45.4;;;;;;;2.5;90.7;101230;;;;
2021/12/06 07:55:50;;;;;;;476.1;67.2;;;;;;;2.4;90.9;101250;;;;
2021/12/06 07:57:52;;;;;;;476.1;67.2;;;;;;;2.3;91.1;101250;;;;
2021/12/06 07:59:50;;;;;;;476.1;67.2;;;;;;;2.4;91.3;101240;;;;
2021/12/06 08:01:51;;;;;;;476.1;67.2;;;;;;;2.5;91.3;101240;;;;
2021/12/06 08:07:50;;;;;;;331.5;58.3;;;;;;;2.4;91.2;101230;;;;
2021/12/06 08:11:50;;;;;;;331.5;58.3;;;;;;;2.5;91.3;101230;;;;
2021/12/06 08:25:50;;;;;;;391.9;63.5;;;;;;;2.6;91.3;101210;;;;
2021/12/06 08:27:50;;;;;;;391.9;63.5;;;;;;;2.5;91.3;101210;;;;
2021/12/06 08:33:50;;;;;;;391.9;63.5;;;;;;;2.6;91.3;101210;;;;
2021/12/06 08:41:50;;;;;;;391.9;63.5;;;;;;;2.5;92.1;101210;;;;
2021/12/06 08:47:50;;;;;;;312.4;64.0;;;;;;;2.6;92.6;101230;;;;
2021/12/06 08:49:50;;;;;;;312.4;64.0;;;;;;;2.7;92.3;101230;;;;
2021/12/06 08:53:51;;;;;;;312.4;64.0;;;;;;;2.6;92.1;101240;;;;
2021/12/06 08:57:50;;;;;;;312.4;64.0;;;;;;;2.8;92.1;101250;;;;
2021/12/06 09:02:00;;;;;;;312.4;64.0;;;;;;;2.7;92.0;101250;;;;
2021/12/06 09:17:50;;;;;;;312.1;68.0;;;;;;;2.8;92.1;101250;;;;
2021/12/06 09:21:50;;;;;;;312.1;68.0;;;;;;;2.9;92.0;101250;;;;
2021/12/06 09:23:50;;;;;;;153.0;50.7;;;;;;;3.0;91.8;101250;;;;
2021/12/06 09:25:50;;;;;;;153.0;50.7;;;;;;;2.9;91.8;101250;;;;
2021/12/06 09:29:50;;;;;;;153.0;50.7;;;;;;;3.1;91.9;101250;;;;
2021/12/06 09:31:50;;;;;;;153.0;50.7;;;;;;;3.0;91.7;101260;;;;
2021/12/06 09:35:50;;;;;;;153.0;50.7;;;;;;;3.1;91.7;101250;;;;
2021/12/06 09:37:50;;;;;;;153.0;50.7;;;;;;;3.0;91.7;101250;;;;
2021/12/06 09:43:50;;;;;;;154.0;50.6;;;;;;;2.9;91.9;101260;;;;
2021/12/06 09:53:50;;;;;;;154.0;50.6;;;;;;;3.0;91.9;101260;;;;
2021/12/06 09:55:50;;;;;;;154.0;50.6;;;;;;;3.1;91.8;101250;;;;
2021/12/06 09:57:50;;;;;;;154.0;50.6;;;;;;;3.0;91.5;101260;;;;
2021/12/06 09:59:50;;;;;;;154.0;50.6;;;;;;;2.8;91.6;101250;;;;
2021/12/06 10:01:51;;;;;;;154.0;50.6;;;;;;;2.9;92.0;101250;;;;
2021/12/06 10:03:50;;;;;;;126.4;48.9;;;;;;;3.0;92.0;101250;;;;
2021/12/06 10:07:50;;;;;;;126.4;48.9;;;;;;;3.1;91.7;101260;;;;
2021/12/06 10:09:51;;;;;;;126.4;48.9;;;;;;;3.0;91.5;101260;;;;
2021/12/06 10:11:50;;;;;;;126.4;48.9;;;;;;;3.1;91.5;101250;;;;
2021/12/06 10:15:52;;;;;;;126.4;48.9;;;;;;;3.0;91.4;101250;;;;
2021/12/06 10:21:50;;;;;;;126.4;48.9;;;;;;;2.8;91.7;101240;;;;
2021/12/06 10:23:50;;;;;;;101.3;45.2;;;;;;;3.0;91.8;101240;;;;
2021/12/06 10:27:50;;;;;;;101.3;45.2;;;;;;;2.8;91.8;101230;;;;
2021/12/06 10:29:53;;;;;;;101.3;45.2;;;;;;;2.9;91.8;101220;;;;
2021/12/06 10:31:50;;;;;;;101.3;45.2;;;;;;;3.0;91.8;101220;;;;
2021/12/06 10:35:50;;;;;;;101.3;45.2;;;;;;;2.9;91.4;101210;;;;
2021/12/06 10:49:50;;;;;;;83.9;42.0;;;;;;;2.8;91.8;101210;;;;
2021/12/06 10:51:50;;;;;;;83.9;42.0;;;;;;;2.9;91.7;101190;;;;
2021/12/06 10:55:51;;;;;;;83.9;42.0;;;;;;;3.0;91.8;101180;;;;
2021/12/06 11:05:50;;;;;;;59.6;37.0;;;;;;;2.9;91.4;101160;;;;
2021/12/06 11:07:50;;;;;;;59.6;37.0;;;;;;;3.0;91.5;101160;;;;
2021/12/06 11:09:52;;;;;;;59.6;37.0;;;;;;;2.9;91.6;101150;;;;
2021/12/06 11:23:50;;;;;;;55.7;34.3;;;;;;;3.1;91.9;101140;;;;
2021/12/06 11:33:50;;;;;;;55.7;34.3;;;;;;;3.2;91.4;101120;;;;
2021/12/06 11:39:50;;;;;;;55.7;34.3;;;;;;;3.1;91.5;101120;;;;
2021/12/06 11:47:50;;;;;;;56.7;32.1;;;;;;;3.2;91.0;101110;;;;
2021/12/06 11:49:51;;;;;;;56.7;32.1;;;;;;;3.1;91.1;101110;;;;
2021/12/06 11:51:50;;;;;;;56.7;32.1;;;;;;;3.2;91.1;101110;;;;
2021/12/06 11:59:50;;;;;;;56.7;32.1;;;;;;;3.3;90.8;101100;;;;
2021/12/06 12:01:51;;;;;;;56.7;32.1;;;;;;;3.1;90.5;101090;;;;
2021/12/06 12:03:50;;;;;;;55.2;30.5;;;;;;;2.9;90.8;101090;;;;
2021/12/06 12:07:50;;;;;;;55.2;30.5;;;;;;;3.0;91.1;101080;;;;
2021/12/06 12:13:50;;;;;;;55.2;30.5;;;;;;;2.9;90.6;101080;;;;
2021/12/06 12:15:50;;;;;;;55.2;30.5;;;;;;;3.0;90.4;101070;;;;
2021/12/06 12:21:50;;;;;;;55.2;30.5;;;;;;;2.9;90.5;101070;;;;
2021/12/06 12:26:02;;;;;;;49.2;30.0;;;;;;;3.0;90.9;101060;;;;
2021/12/06 12:35:50;;;;;;;49.2;30.0;;;;;;;3.1;90.6;101060;;;;
2021/12/06 12:37:53;;;;;;;49.2;30.0;;;;;;;3.0;90.2;101060;;;;
2021/12/06 12:39:50;;;;;;;49.2;30.0;;;;;;;3.1;89.8;101050;;;;
2021/12/06 12:41:50;;;;;;;49.2;30.0;;;;;;;3.0;89.5;101050;;;;
2021/12/06 12:45:51;;;;;;;30.8;22.7;;;;;;;2.9;89.6;101030;;;;
2021/12/06 12:47:50;;;;;;;30.8;22.7;;;;;;;3.0;89.5;101020;;;;
2021/12/06 12:49:50;;;;;;;30.8;22.7;;;;;;;2.8;89.5;101020;;;;
2021/12/06 12:51:50;;;;;;;30.8;22.7;;;;;;;3.0;89.9;101020;;;;
2021/12/06 12:53:50;;;;;;;30.8;22.7;;;;;;;3.1;90.0;101030;;;;
2021/12/06 12:55:51;;;;;;;30.8;22.7;;;;;;;3.0;89.7;101030;;;;
2021/12/06 13:01:51;;;;;;;34.4;25.0;;;;;;;3.1;89.9;101040;;;;
2021/12/06 13:05:50;;;;;;;34.4;25.0;;;;;;;3.0;89.4;101020;;;;
2021/12/06 13:09:51;;;;;;;34.4;25.0;;;;;;;2.8;89.1;101010;;;;
2021/12/06 13:11:51;;;;;;;34.4;25.0;;;;;;;2.6;89.2;101000;;;;
2021/12/06 13:13:51;;;;;;;34.4;25.0;;;;;;;2.5;89.5;101000;;;;
2021/12/06 13:15:57;;;;;;;34.4;25.0;;;;;;;2.7;89.7;101000;;;;
2021/12/06 13:20:06;;;;;;;34.4;25.0;;;;;;;2.6;89.3;101000;;;;
2021/12/06 13:21:54;;;;;;;36.0;25.6;;;;;;;2.7;89.6;100990;;;;
2021/12/06 13:23:50;;;;;;;36.0;25.6;;;;;;;2.6;89.5;100970;;;;
2021/12/06 13:35:52;;;;;;;36.0;25.6;;;;;;;2.8;89.7;100940;;;;
2021/12/06 13:37:50;;;;;;;36.0;25.6;;;;;;;2.7;89.3;100940;;;;
2021/12/06 13:41:50;;;;;;;50.1;30.5;;;;;;;2.8;89.9;100940;;;;
2021/12/06 13:51:52;;;;;;;50.1;30.5;;;;;;;2.7;89.9;100920;;;;
2021/12/06 13:55:50;;;;;;;50.1;30.5;;;;;;;2.9;90.0;100900;;;;
2021/12/06 14:00:01;;;;;;;50.1;30.5;;;;;;;2.7;89.6;100890;;;;
2021/12/06 14:03:50;;;;;;;54.5;33.2;;;;;;;2.8;90.0;100890;;;;
2021/12/06 14:13:50;;;;;;;54.5;33.2;;;;;;;2.9;89.9;100870;;;;
2021/12/06 14:17:50;;;;;;;54.5;33.2;;;;;;;3.0;89.7;100870;;;;
2021/12/06 14:19:50;;;;;;;54.5;33.2;;;;;;;2.9;89.3;100860;;;;
2021/12/06 14:21:50;;;;;;;54.2;32.9;;;;;;;3.0;89.2;100860;;;;
2021/12/06 14:23:50;;;;;;;54.2;32.9;;;;;;;2.9;89.4;100860;;;;
2021/12/06 14:31:51;;;;;;;54.2;32.9;;;;;;;2.8;89.3;100840;;;;
2021/12/06 14:35:50;;;;;;;54.2;32.9;;;;;;;2.9;89.6;100830;;;;
2021/12/06 14:41:51;;;;;;;53.2;31.9;;;;;;;3.0;89.7;100810;;;;
2021/12/06 14:43:50;;;;;;;53.2;31.9;;;;;;;2.9;89.3;100810;;;;
2021/12/06 14:57:52;;;;;;;53.2;31.9;;;;;;;3.0;89.6;100770;;;;
2021/12/06 14:59:50;;;;;;;53.2;31.9;;;;;;;2.9;89.4;100760;;;;
2021/12/06 15:05:50;;;;;;;49.8;31.9;;;;;;;2.8;89.5;100760;;;;
2021/12/06 15:07:50;;;;;;;49.8;31.9;;;;;;;2.9;89.3;100760;;;;
2021/12/06 15:11:55;;;;;;;49.8;31.9;;;;;;;2.8;89.5;100770;;;;
2021/12/06 15:13:51;;;;;;;49.8;31.9;;;;;;;3.0;89.5;100760;;;;
2021/12/06 15:15:50;;;;;;;49.8;31.9;;;;;;;2.9;89.1;100770;;;;
2021/12/06 15:19:51;;;;;;;49.8;31.9;;;;;;;2.8;89.6;100750;;;;
2021/12/06 15:25:51;;;;;;;44.7;32.0;;;;;;;2.9;89.9;100750;;;;
2021/12/06 15:29:51;;;;;;;44.7;32.0;;;;;;;2.8;89.5;100740;;;;
2021/12/06 15:31:51;;;;;;;44.7;32.0;;;;;;;2.9;89.6;100730;;;;
2021/12/06 15:35:50;;;;;;;44.7;32.0;;;;;;;2.8;89.8;100730;;;;
2021/12/06 15:37:50;;;;;;;44.7;32.0;;;;;;;2.9;89.7;100730;;;;
2021/12/06 15:41:50;;;;;;;34.6;25.8;;;;;;;2.8;89.6;100720;;;;
2021/12/06 15:45:51;;;;;;;34.6;25.8;;;;;;;3.0;89.5;100710;;;;
2021/12/06 15:47:50;;;;;;;34.6;25.8;;;;;;;2.9;89.2;100710;;;;
2021/12/06 15:49:50;;;;;;;34.6;25.8;;;;;;;2.8;89.4;100700;;;;
2021/12/06 15:51:53;;;;;;;34.6;25.8;;;;;;;2.9;89.6;100700;;;;
2021/12/06 15:53:50;;;;;;;34.6;25.8;;;;;;;2.8;89.5;100700;;;;
2021/12/06 15:55:50;;;;;;;34.6;25.8;;;;;;;2.9;89.4;100700;;;;
2021/12/06 16:13:51;;;;;;;28.7;22.3;;;;;;;3.0;88.2;100700;;;;
2021/12/06 16:17:50;;;;;;;28.7;22.3;;;;;;;2.9;88.7;100700;;;;
2021/12/06 16:19:50;;;;;;;28.7;22.3;;;;;;;3.0;88.8;100700;;;;
2021/12/06 16:21:50;;;;;;;21.6;19.3;;;;;;;3.1;88.3;100700;;;;
2021/12/06 16:29:51;;;;;;;21.6;19.3;;;;;;;3.0;87.9;100690;;;;
2021/12/06 16:31:52;;;;;;;21.6;19.3;;;;;;;3.1;87.9;100690;;;;
2021/12/06 16:39:50;;;;;;;21.6;19.3;;;;;;;3.2;87.8;100670;;;;
2021/12/06 16:41:50;;;;;;;17.8;15.8;;;;;;;3.1;87.3;100670;;;;
2021/12/06 16:43:50;;;;;;;17.8;15.8;;;;;;;3.2;87.2;100670;;;;
2021/12/06 16:51:50;;;;;;;17.8;15.8;;;;;;;3.1;86.6;100660;;;;
2021/12/06 16:55:51;;;;;;;17.8;15.8;;;;;;;3.2;87.3;100650;;;;
2021/12/06 17:15:51;;;;;;;13.2;11.3;;;;;;;3.1;85.8;100620;;;;
2021/12/06 17:17:50;;;;;;;13.2;11.3;;;;;;;3.2;85.5;100630;;;;
2021/12/06 17:21:50;;;;;;;11.6;10.5;;;;;;;3.1;85.1;100610;;;;
2021/12/06 17:23:50;;;;;;;11.6;10.5;;;;;;;3.2;85.3;100620;;;;
2021/12/06 17:25:52;;;;;;;11.6;10.5;;;;;;;3.1;85.0;100610;;;;
2021/12/06 17:29:50;;;;;;;11.6;10.5;;;;;;;3.0;85.0;100600;;;;
2021/12/06 17:31:50;;;;;;;11.6;10.5;;;;;;;3.1;84.8;100600;;;;
2021/12/06 17:33:51;;;;;;;11.6;10.5;;;;;;;3.0;84.6;100600;;;;
2021/12/06 17:35:50;;;;;;;11.6;10.5;;;;;;;3.1;84.5;100600;;;;
2021/12/06 17:39:52;;;;;;;11.6;10.5;;;;;;;3.0;85.4;100590;;;;
2021/12/06 17:41:50;;;;;;;11.0;9.9;;;;;;;3.2;84.9;100590;;;;
2021/12/06 17:43:50;;;;;;;11.0;9.9;;;;;;;3.1;85.2;100590;;;;
2021/12/06 17:51:50;;;;;;;11.0;9.9;;;;;;;3.2;85.3;100570;;;;
2021/12/06 17:53:50;;;;;;;11.0;9.9;;;;;;;3.1;85.6;100570;;;;
2021/12/06 17:55:50;;;;;;;11.0;9.9;;;;;;;3.2;85.5;100560;;;;
2021/12/06 17:57:54;;;;;;;11.0;9.9;;;;;;;3.1;85.0;100560;;;;
2021/12/06 17:59:50;;;;;;;11.0;9.9;;;;;;;3.2;84.8;100570;;;;
2021/12/06 18:07:50;;;;;;;10.5;9.6;;;;;;;3.1;85.0;100550;;;;
2021/12/06 18:09:50;;;;;;;10.5;9.6;;;;;;;3.2;84.8;100550;;;;
2021/12/06 18:11:55;;;;;;;10.5;9.6;;;;;;;3.1;84.6;100550;;;;
2021/12/06 18:21:50;;;;;;;9.9;8.9;;;;;;;3.2;83.6;100540;;;;
2021/12/06 18:25:50;;;;;;;9.9;8.9;;;;;;;3.3;84.0;100530;;;;
2021/12/06 18:27:51;;;;;;;9.9;8.9;;;;;;;3.2;84.2;100530;;;;
2021/12/06 18:39:58;;;;;;;9.9;8.9;;;;;;;3.1;85.2;100500;;;;
2021/12/06 18:41:50;;;;;;;10.4;9.4;;;;;;;3.2;84.9;100500;;;;
2021/12/06 18:45:50;;;;;;;10.4;9.4;;;;;;;3.1;85.2;100490;;;;
2021/12/06 18:47:53;;;;;;;10.4;9.4;;;;;;;3.0;85.5;100490;;;;
2021/12/06 18:49:50;;;;;;;10.4;9.4;;;;;;;3.1;85.6;100480;;;;
2021/12/06 18:51:54;;;;;;;10.4;9.4;;;;;;;3.0;85.6;100470;;;;
2021/12/06 19:01:51;;;;;;;10.3;9.4;;;;;;;3.1;85.9;100460;;;;
2021/12/06 19:05:50;;;;;;;10.3;9.4;;;;;;;3.0;85.4;100460;;;;
2021/12/06 19:07:51;;;;;;;10.3;9.4;;;;;;;3.1;85.7;100450;;;;
2021/12/06 19:09:50;;;;;;;10.3;9.4;;;;;;;3.0;85.4;100450;;;;
2021/12/06 19:15:51;;;;;;;10.3;9.4;;;;;;;3.1;85.8;100430;;;;
2021/12/06 19:17:50;;;;;;;10.3;9.4;;;;;;;3.0;85.8;100430;;;;
2021/12/06 19:19:50;;;;;;;10.3;9.4;;;;;;;2.9;85.8;100420;;;;
2021/12/06 19:25:52;;;;;;;10.2;9.2;;;;;;;3.0;87.0;100410;;;;
2021/12/06 19:43:54;;;;;;;10.7;9.6;;;;;;;2.8;87.3;100380;;;;
2021/12/06 19:45:50;;;;;;;10.7;9.6;;;;;;;2.9;87.5;100380;;;;
2021/12/06 19:53:50;;;;;;;10.7;9.6;;;;;;;2.8;87.9;100370;;;;
2021/12/06 19:55:50;;;;;;;10.7;9.6;;;;;;;2.7;88.1;100370;;;;
2021/12/06 19:57:52;;;;;;;10.7;9.6;;;;;;;2.8;88.2;100360;;;;
2021/12/06 20:01:51;;;;;;;11.6;10.4;;;;;;;2.9;87.9;100350;;;;
2021/12/06 20:03:50;;;;;;;11.6;10.4;;;;;;;2.8;87.9;100350;;;;
2021/12/06 20:05:50;;;;;;;11.6;10.4;;;;;;;2.7;87.7;100340;;;;
2021/12/06 20:09:50;;;;;;;11.6;10.4;;;;;;;2.5;88.3;100330;;;;
2021/12/06 20:11:50;;;;;;;11.6;10.4;;;;;;;2.6;88.7;100330;;;;
2021/12/06 20:15:50;;;;;;;11.6;10.4;;;;;;;2.5;88.6;100320;;;;
2021/12/06 20:21:50;;;;;;;12.0;10.8;;;;;;;2.4;88.8;100310;;;;
2021/12/06 20:25:50;;;;;;;12.0;10.8;;;;;;;2.2;88.6;100310;;;;
2021/12/06 20:27:50;;;;;;;12.0;10.8;;;;;;;2.3;89.0;100300;;;;
2021/12/06 20:29:50;;;;;;;12.0;10.8;;;;;;;2.2;88.7;100300;;;;
2021/12/06 20:35:51;;;;;;;12.0;10.8;;;;;;;2.3;88.9;100290;;;;
2021/12/06 20:37:50;;;;;;;12.0;10.8;;;;;;;2.2;88.6;100290;;;;
2021/12/06 20:43:50;;;;;;;11.9;10.8;;;;;;;2.0;88.7;100280;;;;
2021/12/06 20:49:50;;;;;;;11.9;10.8;;;;;;;1.9;89.1;100280;;;;
2021/12/06 20:51:50;;;;;;;11.9;10.8;;;;;;;1.8;89.1;100270;;;;
2021/12/06 20:53:50;;;;;;;11.9;10.8;;;;;;;1.7;89.3;100270;;;;
2021/12/06 20:55:50;;;;;;;11.9;10.8;;;;;;;1.9;89.3;100270;;;;
2021/12/06 20:57:50;;;;;;;11.9;10.8;;;;;;;1.8;89.1;100260;;;;
2021/12/06 21:07:50;;;;;;;10.8;9.8;;;;;;;1.7;89.1;100240;;;;
2021/12/06 21:09:56;;;;;;;10.8;9.8;;;;;;;1.6;89.1;100240;;;;
2021/12/06 21:11:58;;;;;;;10.8;9.8;;;;;;;1.7;89.4;100240;;;;
2021/12/06 21:17:50;;;;;;;10.8;9.8;;;;;;;1.6;88.9;100230;;;;
2021/12/06 21:19:50;;;;;;;12.7;11.4;;;;;;;1.7;89.0;100230;;;;
2021/12/06 21:23:50;;;;;;;12.7;11.4;;;;;;;1.6;88.8;100230;;;;
2021/12/06 21:25:50;;;;;;;12.7;11.4;;;;;;;1.5;88.7;100220;;;;
2021/12/06 21:29:50;;;;;;;12.7;11.4;;;;;;;1.4;88.8;100220;;;;
2021/12/06 21:31:50;;;;;;;12.7;11.4;;;;;;;1.3;88.9;100220;;;;
2021/12/06 21:33:50;;;;;;;12.7;11.4;;;;;;;1.4;89.1;100210;;;;
2021/12/06 21:35:51;;;;;;;12.7;11.4;;;;;;;1.5;88.9;100210;;;;
2021/12/06 21:37:50;;;;;;;12.7;11.4;;;;;;;1.4;89.0;100210;;;;
2021/12/06 21:39:50;;;;;;;12.1;10.9;;;;;;;1.5;89.0;100210;;;;
2021/12/06 21:43:51;;;;;;;12.1;10.9;;;;;;;1.3;88.4;100200;;;;
2021/12/06 21:45:50;;;;;;;12.1;10.9;;;;;;;1.5;88.9;100200;;;;
2021/12/06 21:47:50;;;;;;;12.1;10.9;;;;;;;1.4;88.8;100200;;;;
2021/12/06 21:51:50;;;;;;;12.1;10.9;;;;;;;1.5;88.8;100200;;;;
2021/12/06 21:53:51;;;;;;;12.1;10.9;;;;;;;1.4;88.6;100200;;;;
2021/12/06 21:55:50;;;;;;;12.1;10.9;;;;;;;1.2;88.4;100190;;;;
2021/12/06 22:01:51;;;;;;;12.4;11.2;;;;;;;1.4;89.0;100190;;;;
2021/12/06 22:04:17;;;;;;;12.4;11.2;;;;;;;1.2;88.6;100190;;;;
2021/12/06 22:07:50;;;;;;;12.4;11.2;;;;;;;1.3;89.0;100190;;;;
2021/12/06 22:11:50;;;;;;;12.4;11.2;;;;;;;1.4;89.0;100190;;;;
2021/12/06 22:15:50;;;;;;;12.4;11.2;;;;;;;1.2;88.7;100190;;;;
2021/12/06 22:23:50;;;;;;;12.4;11.1;;;;;;;1.1;88.9;100180;;;;
2021/12/06 22:25:50;;;;;;;12.4;11.1;;;;;;;1.2;89.2;100180;;;;
2021/12/06 22:29:50;;;;;;;12.4;11.1;;;;;;;1.1;88.9;100180;;;;
2021/12/06 22:35:51;;;;;;;12.4;11.1;;;;;;;1.0;89.4;100180;;;;
2021/12/06 22:37:50;;;;;;;12.4;11.1;;;;;;;1.1;89.4;100180;;;;
2021/12/06 22:39:50;;;;;;;13.0;11.7;;;;;;;1.3;89.1;100190;;;;
2021/12/06 22:41:50;;;;;;;13.0;11.7;;;;;;;1.1;88.7;100190;;;;
2021/12/06 22:47:50;;;;;;;13.0;11.7;;;;;;;1.0;89.2;100180;;;;
2021/12/06 22:49:50;;;;;;;13.0;11.7;;;;;;;1.1;89.3;100190;;;;
2021/12/06 22:53:50;;;;;;;13.0;11.7;;;;;;;1.2;89.3;100190;;;;
2021/12/06 22:55:50;;;;;;;13.0;11.7;;;;;;;1.1;89.1;100200;;;;
2021/12/06 22:59:50;;;;;;;12.1;10.8;;;;;;;1.2;89.4;100190;;;;
2021/12/06 23:01:51;;;;;;;12.1;10.8;;;;;;;1.1;89.4;100190;;;;
2021/12/06 23:05:50;;;;;;;12.1;10.8;;;;;;;1.2;89.3;100200;;;;
2021/12/06 23:17:50;;;;;;;12.1;10.8;;;;;;;1.1;89.0;100210;;;;
2021/12/06 23:19:50;;;;;;;14.1;12.5;;;;;;;1.2;89.1;100200;;;;
2021/12/06 23:23:52;;;;;;;14.1;12.5;;;;;;;1.1;89.2;100200;;;;
2021/12/06 23:27:51;;;;;;;14.1;12.5;;;;;;;1.2;89.3;100210;;;;
2021/12/06 23:31:50;;;;;;;14.1;12.5;;;;;;;1.1;89.1;100220;;;;
2021/12/06 23:33:51;;;;;;;14.1;12.5;;;;;;;1.2;89.3;100220;;;;
2021/12/06 23:59:50;;;;;;;11.4;10.3;;;;;;;1.4;89.3;100230;;;;
